SIN weather

Singapore Changi Airport
Singapore, South East, Singapore

Public forecast

Using degrees Celsius for public forecast. Weather courtesy of forecast.io.

METAR (pilot weather report)

Retrieved 2018/02/18 23:30 UTC (10 minutes ago):

WSSS 182330Z 02004KT 330V060 9000 FEW018 BKN350 25/23 Q1010 NOSIG

TAF (pilot weather forecast)

Forecast is more than 12 hours old.

Retrieved 2018/02/18 06:12 UTC (17 hours ago):

TAF WSSS 180500Z 1806/1912 01008KT 9999 FEW018CB SCT020 TEMPO 1808/1811 4000 SHRA FEW012CB BKN015